sensor_id;sensor_type;location;lat;lon;timestamp;P1;durP1;ratioP1;P2;durP2;ratioP2
70320;SDS011;61127;55.826;37.046;2023-05-07T00:00:42;6.45;;;3.30;;
70320;SDS011;61127;55.826;37.046;2023-05-07T00:03:08;6.45;;;3.08;;
70320;SDS011;61127;55.826;37.046;2023-05-07T00:05:34;8.02;;;3.40;;
70320;SDS011;61127;55.826;37.046;2023-05-07T00:08:02;7.97;;;3.70;;
70320;SDS011;61127;55.826;37.046;2023-05-07T00:10:27;6.47;;;3.17;;
70320;SDS011;61127;55.826;37.046;2023-05-07T00:12:53;8.40;;;3.30;;
70320;SDS011;61127;55.826;37.046;2023-05-07T00:15:19;8.40;;;3.63;;
70320;SDS011;61127;55.826;37.046;2023-05-07T00:17:46;8.63;;;4.15;;
70320;SDS011;61127;55.826;37.046;2023-05-07T00:20:12;6.53;;;3.15;;
70320;SDS011;61127;55.826;37.046;2023-05-07T00:22:39;9.43;;;3.30;;
70320;SDS011;61127;55.826;37.046;2023-05-07T00:25:05;6.68;;;3.20;;
70320;SDS011;61127;55.826;37.046;2023-05-07T00:27:31;7.25;;;3.17;;
70320;SDS011;61127;55.826;37.046;2023-05-07T00:29:57;5.90;;;3.13;;
70320;SDS011;61127;55.826;37.046;2023-05-07T00:32:23;7.03;;;3.20;;
70320;SDS011;61127;55.826;37.046;2023-05-07T00:34:49;7.73;;;3.40;;
70320;SDS011;61127;55.826;37.046;2023-05-07T00:37:16;9.77;;;3.00;;
70320;SDS011;61127;55.826;37.046;2023-05-07T00:39:42;6.70;;;3.40;;
70320;SDS011;61127;55.826;37.046;2023-05-07T00:42:08;7.40;;;3.10;;
70320;SDS011;61127;55.826;37.046;2023-05-07T00:44:34;6.13;;;3.00;;
70320;SDS011;61127;55.826;37.046;2023-05-07T00:47:01;8.55;;;3.80;;
70320;SDS011;61127;55.826;37.046;2023-05-07T00:49:37;7.72;;;3.75;;
70320;SDS011;61127;55.826;37.046;2023-05-07T00:52:07;7.85;;;3.30;;
70320;SDS011;61127;55.826;37.046;2023-05-07T00:54:34;6.45;;;3.50;;
70320;SDS011;61127;55.826;37.046;2023-05-07T00:57:01;8.63;;;3.20;;
70320;SDS011;61127;55.826;37.046;2023-05-07T00:59:32;8.68;;;3.20;;
70320;SDS011;61127;55.826;37.046;2023-05-07T01:01:59;7.85;;;3.20;;
70320;SDS011;61127;55.826;37.046;2023-05-07T01:04:25;8.45;;;3.28;;
70320;SDS011;61127;55.826;37.046;2023-05-07T01:06:52;8.80;;;2.90;;
70320;SDS011;61127;55.826;37.046;2023-05-07T01:09:22;7.75;;;3.03;;
70320;SDS011;61127;55.826;37.046;2023-05-07T01:11:49;7.00;;;2.90;;
70320;SDS011;61127;55.826;37.046;2023-05-07T01:14:17;5.53;;;2.88;;
70320;SDS011;61127;55.826;37.046;2023-05-07T01:16:43;6.95;;;2.88;;
70320;SDS011;61127;55.826;37.046;2023-05-07T01:19:11;5.38;;;2.80;;
70320;SDS011;61127;55.826;37.046;2023-05-07T01:21:39;6.32;;;3.33;;
70320;SDS011;61127;55.826;37.046;2023-05-07T01:24:15;8.27;;;3.15;;
70320;SDS011;61127;55.826;37.046;2023-05-07T01:26:42;9.95;;;4.15;;
70320;SDS011;61127;55.826;37.046;2023-05-07T01:29:11;9.10;;;3.70;;
70320;SDS011;61127;55.826;37.046;2023-05-07T01:31:38;7.70;;;3.25;;
70320;SDS011;61127;55.826;37.046;2023-05-07T01:34:06;10.18;;;2.95;;
70320;SDS011;61127;55.826;37.046;2023-05-07T01:36:34;9.50;;;3.30;;
70320;SDS011;61127;55.826;37.046;2023-05-07T01:39:00;7.05;;;3.00;;
70320;SDS011;61127;55.826;37.046;2023-05-07T01:41:27;8.30;;;2.85;;
70320;SDS011;61127;55.826;37.046;2023-05-07T01:43:54;5.70;;;3.03;;
70320;SDS011;61127;55.826;37.046;2023-05-07T01:46:20;6.32;;;3.25;;
70320;SDS011;61127;55.826;37.046;2023-05-07T01:48:47;6.97;;;2.88;;
70320;SDS011;61127;55.826;37.046;2023-05-07T01:51:13;6.07;;;2.70;;
70320;SDS011;61127;55.826;37.046;2023-05-07T01:53:39;9.05;;;3.20;;
70320;SDS011;61127;55.826;37.046;2023-05-07T01:56:06;6.13;;;3.00;;
70320;SDS011;61127;55.826;37.046;2023-05-07T01:58:34;4.72;;;2.75;;
70320;SDS011;61127;55.826;37.046;2023-05-07T02:01:00;8.82;;;3.47;;
70320;SDS011;61127;55.826;37.046;2023-05-07T02:03:26;7.40;;;2.90;;
70320;SDS011;61127;55.826;37.046;2023-05-07T02:06:01;8.90;;;3.40;;
70320;SDS011;61127;55.826;37.046;2023-05-07T02:08:38;7.82;;;3.50;;
70320;SDS011;61127;55.826;37.046;2023-05-07T02:11:04;8.27;;;3.58;;
70320;SDS011;61127;55.826;37.046;2023-05-07T02:13:31;6.88;;;3.13;;
70320;SDS011;61127;55.826;37.046;2023-05-07T02:15:58;7.32;;;3.40;;
70320;SDS011;61127;55.826;37.046;2023-05-07T02:18:25;8.87;;;3.17;;
70320;SDS011;61127;55.826;37.046;2023-05-07T02:20:52;6.45;;;3.55;;
70320;SDS011;61127;55.826;37.046;2023-05-07T02:23:18;6.80;;;3.17;;
70320;SDS011;61127;55.826;37.046;2023-05-07T02:25:44;6.72;;;3.30;;
70320;SDS011;61127;55.826;37.046;2023-05-07T02:28:11;7.77;;;3.30;;
70320;SDS011;61127;55.826;37.046;2023-05-07T02:31:04;6.97;;;3.10;;
70320;SDS011;61127;55.826;37.046;2023-05-07T02:33:33;6.30;;;3.03;;
70320;SDS011;61127;55.826;37.046;2023-05-07T02:36:08;7.53;;;2.60;;
70320;SDS011;61127;55.826;37.046;2023-05-07T02:38:40;7.95;;;3.20;;
70320;SDS011;61127;55.826;37.046;2023-05-07T02:41:06;7.00;;;3.43;;
70320;SDS011;61127;55.826;37.046;2023-05-07T02:43:32;7.70;;;3.17;;
70320;SDS011;61127;55.826;37.046;2023-05-07T02:46:04;6.45;;;2.92;;
70320;SDS011;61127;55.826;37.046;2023-05-07T02:48:33;7.35;;;3.65;;
70320;SDS011;61127;55.826;37.046;2023-05-07T02:51:00;6.82;;;3.28;;
70320;SDS011;61127;55.826;37.046;2023-05-07T02:53:26;5.18;;;2.90;;
70320;SDS011;61127;55.826;37.046;2023-05-07T02:55:53;5.78;;;2.90;;
70320;SDS011;61127;55.826;37.046;2023-05-07T02:58:19;6.60;;;3.30;;
70320;SDS011;61127;55.826;37.046;2023-05-07T03:00:46;6.53;;;3.00;;
70320;SDS011;61127;55.826;37.046;2023-05-07T03:03:35;7.38;;;3.22;;
70320;SDS011;61127;55.826;37.046;2023-05-07T03:06:01;7.50;;;3.20;;
70320;SDS011;61127;55.826;37.046;2023-05-07T03:08:27;9.10;;;3.10;;
70320;SDS011;61127;55.826;37.046;2023-05-07T03:10:53;6.47;;;3.45;;
70320;SDS011;61127;55.826;37.046;2023-05-07T03:13:19;9.15;;;3.42;;
70320;SDS011;61127;55.826;37.046;2023-05-07T03:15:47;7.45;;;3.10;;
70320;SDS011;61127;55.826;37.046;2023-05-07T03:18:13;7.15;;;2.88;;
70320;SDS011;61127;55.826;37.046;2023-05-07T03:20:39;6.78;;;3.20;;
70320;SDS011;61127;55.826;37.046;2023-05-07T03:23:05;8.57;;;3.20;;
70320;SDS011;61127;55.826;37.046;2023-05-07T03:25:31;5.25;;;2.78;;
70320;SDS011;61127;55.826;37.046;2023-05-07T03:27:57;6.28;;;2.90;;
70320;SDS011;61127;55.826;37.046;2023-05-07T03:30:30;4.72;;;2.60;;
70320;SDS011;61127;55.826;37.046;2023-05-07T03:32:56;6.07;;;3.20;;
70320;SDS011;61127;55.826;37.046;2023-05-07T03:35:22;5.22;;;2.75;;
70320;SDS011;61127;55.826;37.046;2023-05-07T03:37:48;7.00;;;3.22;;
70320;SDS011;61127;55.826;37.046;2023-05-07T03:40:14;5.18;;;3.00;;
70320;SDS011;61127;55.826;37.046;2023-05-07T03:42:45;6.05;;;2.92;;
70320;SDS011;61127;55.826;37.046;2023-05-07T03:45:12;6.47;;;2.90;;
70320;SDS011;61127;55.826;37.046;2023-05-07T03:47:43;8.32;;;3.03;;
70320;SDS011;61127;55.826;37.046;2023-05-07T03:50:11;6.10;;;2.85;;
70320;SDS011;61127;55.826;37.046;2023-05-07T03:52:42;6.45;;;2.67;;
70320;SDS011;61127;55.826;37.046;2023-05-07T03:55:13;5.10;;;2.60;;
70320;SDS011;61127;55.826;37.046;2023-05-07T03:57:44;6.70;;;3.05;;
70320;SDS011;61127;55.826;37.046;2023-05-07T04:00:10;6.00;;;2.80;;
70320;SDS011;61127;55.826;37.046;2023-05-07T04:02:45;5.72;;;2.60;;
70320;SDS011;61127;55.826;37.046;2023-05-07T04:05:14;5.43;;;2.75;;
70320;SDS011;61127;55.826;37.046;2023-05-07T04:07:42;4.00;;;2.30;;
70320;SDS011;61127;55.826;37.046;2023-05-07T04:10:10;5.45;;;2.50;;
70320;SDS011;61127;55.826;37.046;2023-05-07T04:12:39;6.28;;;2.45;;
70320;SDS011;61127;55.826;37.046;2023-05-07T04:15:06;5.30;;;2.33;;
70320;SDS011;61127;55.826;37.046;2023-05-07T04:17:34;4.30;;;2.10;;
70320;SDS011;61127;55.826;37.046;2023-05-07T04:20:00;8.53;;;2.37;;
70320;SDS011;61127;55.826;37.046;2023-05-07T04:22:28;5.13;;;2.53;;
70320;SDS011;61127;55.826;37.046;2023-05-07T04:24:57;3.63;;;2.15;;
70320;SDS011;61127;55.826;37.046;2023-05-07T04:27:24;3.78;;;2.10;;
70320;SDS011;61127;55.826;37.046;2023-05-07T04:29:50;4.05;;;1.85;;
70320;SDS011;61127;55.826;37.046;2023-05-07T04:32:17;4.50;;;1.97;;
70320;SDS011;61127;55.826;37.046;2023-05-07T04:34:47;4.32;;;2.08;;
70320;SDS011;61127;55.826;37.046;2023-05-07T04:37:13;4.50;;;2.10;;
70320;SDS011;61127;55.826;37.046;2023-05-07T04:39:39;4.07;;;1.90;;
70320;SDS011;61127;55.826;37.046;2023-05-07T04:42:06;4.65;;;1.95;;
70320;SDS011;61127;55.826;37.046;2023-05-07T04:44:34;3.85;;;1.80;;
70320;SDS011;61127;55.826;37.046;2023-05-07T04:47:02;2.78;;;1.60;;
70320;SDS011;61127;55.826;37.046;2023-05-07T04:49:28;3.42;;;1.77;;
70320;SDS011;61127;55.826;37.046;2023-05-07T04:51:55;4.13;;;1.70;;
70320;SDS011;61127;55.826;37.046;2023-05-07T04:54:22;2.05;;;1.42;;
70320;SDS011;61127;55.826;37.046;2023-05-07T04:56:48;3.72;;;1.80;;
70320;SDS011;61127;55.826;37.046;2023-05-07T04:59:14;3.20;;;1.67;;
70320;SDS011;61127;55.826;37.046;2023-05-07T05:01:40;3.15;;;1.80;;
70320;SDS011;61127;55.826;37.046;2023-05-07T05:04:06;2.77;;;1.60;;
70320;SDS011;61127;55.826;37.046;2023-05-07T05:06:36;2.47;;;1.40;;
70320;SDS011;61127;55.826;37.046;2023-05-07T05:09:06;2.92;;;1.50;;
70320;SDS011;61127;55.826;37.046;2023-05-07T05:11:33;2.67;;;1.45;;
70320;SDS011;61127;55.826;37.046;2023-05-07T05:14:02;2.53;;;1.50;;
70320;SDS011;61127;55.826;37.046;2023-05-07T05:16:31;2.67;;;1.17;;
70320;SDS011;61127;55.826;37.046;2023-05-07T05:18:58;2.38;;;1.10;;
70320;SDS011;61127;55.826;37.046;2023-05-07T05:21:24;2.97;;;1.00;;
70320;SDS011;61127;55.826;37.046;2023-05-07T05:23:54;2.05;;;1.10;;
70320;SDS011;61127;55.826;37.046;2023-05-07T05:26:23;1.98;;;1.05;;
70320;SDS011;61127;55.826;37.046;2023-05-07T05:28:49;2.03;;;1.40;;
70320;SDS011;61127;55.826;37.046;2023-05-07T05:31:17;2.15;;;1.20;;
70320;SDS011;61127;55.826;37.046;2023-05-07T05:33:43;1.33;;;1.10;;
70320;SDS011;61127;55.826;37.046;2023-05-07T05:36:10;1.90;;;1.20;;
70320;SDS011;61127;55.826;37.046;2023-05-07T05:38:39;3.40;;;1.27;;
70320;SDS011;61127;55.826;37.046;2023-05-07T05:41:07;2.03;;;1.10;;
70320;SDS011;61127;55.826;37.046;2023-05-07T05:43:34;2.40;;;1.38;;
70320;SDS011;61127;55.826;37.046;2023-05-07T05:46:00;2.65;;;1.40;;
70320;SDS011;61127;55.826;37.046;2023-05-07T05:48:26;1.92;;;1.20;;
70320;SDS011;61127;55.826;37.046;2023-05-07T05:50:52;2.50;;;1.45;;
70320;SDS011;61127;55.826;37.046;2023-05-07T05:53:18;2.33;;;1.10;;
70320;SDS011;61127;55.826;37.046;2023-05-07T05:55:44;3.38;;;1.20;;
70320;SDS011;61127;55.826;37.046;2023-05-07T05:58:11;5.07;;;1.40;;
70320;SDS011;61127;55.826;37.046;2023-05-07T06:00:42;4.55;;;1.13;;
70320;SDS011;61127;55.826;37.046;2023-05-07T06:03:08;2.65;;;1.27;;
70320;SDS011;61127;55.826;37.046;2023-05-07T06:05:35;1.60;;;1.10;;
70320;SDS011;61127;55.826;37.046;2023-05-07T06:08:01;1.67;;;1.25;;
70320;SDS011;61127;55.826;37.046;2023-05-07T06:10:31;2.38;;;1.00;;
70320;SDS011;61127;55.826;37.046;2023-05-07T06:12:58;2.10;;;1.15;;
70320;SDS011;61127;55.826;37.046;2023-05-07T06:15:24;1.85;;;1.30;;
70320;SDS011;61127;55.826;37.046;2023-05-07T06:17:51;2.83;;;1.20;;
70320;SDS011;61127;55.826;37.046;2023-05-07T06:20:17;5.03;;;1.75;;
70320;SDS011;61127;55.826;37.046;2023-05-07T06:22:44;3.08;;;1.38;;
70320;SDS011;61127;55.826;37.046;2023-05-07T06:25:11;2.50;;;1.10;;
70320;SDS011;61127;55.826;37.046;2023-05-07T06:27:38;3.95;;;1.20;;
70320;SDS011;61127;55.826;37.046;2023-05-07T06:30:05;2.00;;;1.20;;
70320;SDS011;61127;55.826;37.046;2023-05-07T06:32:32;2.78;;;1.15;;
70320;SDS011;61127;55.826;37.046;2023-05-07T06:34:58;2.70;;;1.10;;
70320;SDS011;61127;55.826;37.046;2023-05-07T06:37:27;1.90;;;1.30;;
70320;SDS011;61127;55.826;37.046;2023-05-07T06:39:57;1.92;;;1.20;;
70320;SDS011;61127;55.826;37.046;2023-05-07T06:42:24;2.70;;;1.40;;
70320;SDS011;61127;55.826;37.046;2023-05-07T06:44:56;2.42;;;1.20;;
70320;SDS011;61127;55.826;37.046;2023-05-07T06:47:22;1.75;;;1.10;;
70320;SDS011;61127;55.826;37.046;2023-05-07T06:49:51;3.45;;;1.25;;
70320;SDS011;61127;55.826;37.046;2023-05-07T06:52:20;1.40;;;1.10;;
70320;SDS011;61127;55.826;37.046;2023-05-07T06:54:48;3.05;;;1.08;;
70320;SDS011;61127;55.826;37.046;2023-05-07T06:57:17;1.48;;;1.10;;
70320;SDS011;61127;55.826;37.046;2023-05-07T06:59:43;2.25;;;1.13;;
70320;SDS011;61127;55.826;37.046;2023-05-07T07:02:09;2.17;;;1.08;;
70320;SDS011;61127;55.826;37.046;2023-05-07T07:04:35;1.77;;;1.00;;
70320;SDS011;61127;55.826;37.046;2023-05-07T07:07:05;1.52;;;1.00;;
70320;SDS011;61127;55.826;37.046;2023-05-07T07:09:31;3.55;;;1.27;;
70320;SDS011;61127;55.826;37.046;2023-05-07T07:12:01;1.77;;;1.00;;
70320;SDS011;61127;55.826;37.046;2023-05-07T07:14:29;2.30;;;1.00;;
70320;SDS011;61127;55.826;37.046;2023-05-07T07:16:56;1.27;;;1.10;;
70320;SDS011;61127;55.826;37.046;2023-05-07T07:19:23;1.67;;;0.90;;
70320;SDS011;61127;55.826;37.046;2023-05-07T07:21:53;4.25;;;1.20;;
70320;SDS011;61127;55.826;37.046;2023-05-07T07:24:18;1.23;;;0.93;;
70320;SDS011;61127;55.826;37.046;2023-05-07T07:26:49;2.45;;;1.02;;
70320;SDS011;61127;55.826;37.046;2023-05-07T07:29:17;2.73;;;1.20;;
70320;SDS011;61127;55.826;37.046;2023-05-07T07:31:45;1.55;;;1.10;;
70320;SDS011;61127;55.826;37.046;2023-05-07T07:34:11;1.88;;;1.30;;
70320;SDS011;61127;55.826;37.046;2023-05-07T07:36:37;2.70;;;1.40;;
70320;SDS011;61127;55.826;37.046;2023-05-07T07:39:03;2.37;;;1.30;;
70320;SDS011;61127;55.826;37.046;2023-05-07T07:41:29;1.33;;;1.10;;
70320;SDS011;61127;55.826;37.046;2023-05-07T07:43:55;1.98;;;1.17;;
70320;SDS011;61127;55.826;37.046;2023-05-07T07:46:22;2.13;;;0.98;;
70320;SDS011;61127;55.826;37.046;2023-05-07T07:48:48;2.45;;;1.20;;
70320;SDS011;61127;55.826;37.046;2023-05-07T07:51:14;2.50;;;1.23;;
70320;SDS011;61127;55.826;37.046;2023-05-07T07:53:40;2.05;;;1.10;;
70320;SDS011;61127;55.826;37.046;2023-05-07T07:56:07;1.63;;;1.20;;
70320;SDS011;61127;55.826;37.046;2023-05-07T07:58:34;1.90;;;1.30;;
70320;SDS011;61127;55.826;37.046;2023-05-07T08:01:01;3.15;;;1.60;;
70320;SDS011;61127;55.826;37.046;2023-05-07T08:03:27;3.30;;;1.07;;
70320;SDS011;61127;55.826;37.046;2023-05-07T08:05:57;1.13;;;0.95;;
70320;SDS011;61127;55.826;37.046;2023-05-07T08:08:24;2.15;;;1.02;;
70320;SDS011;61127;55.826;37.046;2023-05-07T08:10:51;4.10;;;1.45;;
70320;SDS011;61127;55.826;37.046;2023-05-07T08:13:25;1.60;;;1.10;;
70320;SDS011;61127;55.826;37.046;2023-05-07T08:15:51;1.83;;;1.10;;
70320;SDS011;61127;55.826;37.046;2023-05-07T08:18:17;2.97;;;1.23;;
70320;SDS011;61127;55.826;37.046;2023-05-07T08:20:44;2.00;;;1.10;;
70320;SDS011;61127;55.826;37.046;2023-05-07T08:23:15;2.22;;;1.10;;
70320;SDS011;61127;55.826;37.046;2023-05-07T08:25:42;1.80;;;1.00;;
70320;SDS011;61127;55.826;37.046;2023-05-07T08:28:09;1.08;;;0.90;;
70320;SDS011;61127;55.826;37.046;2023-05-07T08:30:37;3.45;;;1.30;;
70320;SDS011;61127;55.826;37.046;2023-05-07T08:33:03;3.38;;;1.30;;
70320;SDS011;61127;55.826;37.046;2023-05-07T08:35:29;2.50;;;1.20;;
70320;SDS011;61127;55.826;37.046;2023-05-07T08:37:55;4.10;;;1.20;;
70320;SDS011;61127;55.826;37.046;2023-05-07T08:40:23;2.35;;;1.30;;
70320;SDS011;61127;55.826;37.046;2023-05-07T08:42:52;3.10;;;1.00;;
70320;SDS011;61127;55.826;37.046;2023-05-07T08:45:20;2.50;;;1.10;;
70320;SDS011;61127;55.826;37.046;2023-05-07T08:47:51;1.40;;;1.00;;
70320;SDS011;61127;55.826;37.046;2023-05-07T08:50:25;2.00;;;1.17;;
70320;SDS011;61127;55.826;37.046;2023-05-07T08:52:52;3.10;;;1.00;;
70320;SDS011;61127;55.826;37.046;2023-05-07T08:55:19;2.28;;;0.85;;
70320;SDS011;61127;55.826;37.046;2023-05-07T08:57:47;1.45;;;1.05;;
70320;SDS011;61127;55.826;37.046;2023-05-07T09:00:14;2.87;;;1.10;;
70320;SDS011;61127;55.826;37.046;2023-05-07T09:02:42;1.00;;;0.82;;
70320;SDS011;61127;55.826;37.046;2023-05-07T09:05:09;3.72;;;1.02;;
70320;SDS011;61127;55.826;37.046;2023-05-07T09:07:36;1.70;;;0.90;;
70320;SDS011;61127;55.826;37.046;2023-05-07T09:10:04;1.10;;;1.00;;
70320;SDS011;61127;55.826;37.046;2023-05-07T09:12:34;1.10;;;0.83;;
70320;SDS011;61127;55.826;37.046;2023-05-07T09:15:03;1.73;;;1.00;;
70320;SDS011;61127;55.826;37.046;2023-05-07T09:17:31;1.13;;;1.00;;
70320;SDS011;61127;55.826;37.046;2023-05-07T09:20:04;1.88;;;1.10;;
70320;SDS011;61127;55.826;37.046;2023-05-07T09:22:32;2.22;;;1.02;;
70320;SDS011;61127;55.826;37.046;2023-05-07T09:25:03;4.40;;;1.10;;
70320;SDS011;61127;55.826;37.046;2023-05-07T09:27:33;1.60;;;1.10;;
70320;SDS011;61127;55.826;37.046;2023-05-07T09:30:02;1.83;;;1.30;;
70320;SDS011;61127;55.826;37.046;2023-05-07T09:32:30;1.30;;;1.20;;
70320;SDS011;61127;55.826;37.046;2023-05-07T09:35:00;2.67;;;1.00;;
70320;SDS011;61127;55.826;37.046;2023-05-07T09:37:27;2.27;;;0.97;;
70320;SDS011;61127;55.826;37.046;2023-05-07T09:39:55;2.20;;;1.13;;
70320;SDS011;61127;55.826;37.046;2023-05-07T09:42:24;2.30;;;1.08;;
70320;SDS011;61127;55.826;37.046;2023-05-07T09:44:53;2.25;;;1.10;;
70320;SDS011;61127;55.826;37.046;2023-05-07T09:47:23;2.88;;;1.00;;
70320;SDS011;61127;55.826;37.046;2023-05-07T09:49:54;2.37;;;1.10;;
70320;SDS011;61127;55.826;37.046;2023-05-07T09:52:23;2.10;;;1.23;;
70320;SDS011;61127;55.826;37.046;2023-05-07T09:54:53;4.13;;;1.60;;
70320;SDS011;61127;55.826;37.046;2023-05-07T09:57:23;2.08;;;1.20;;
70320;SDS011;61127;55.826;37.046;2023-05-07T09:59:56;1.70;;;0.90;;
70320;SDS011;61127;55.826;37.046;2023-05-07T10:02:25;2.17;;;1.50;;
70320;SDS011;61127;55.826;37.046;2023-05-07T10:04:54;2.45;;;1.58;;
70320;SDS011;61127;55.826;37.046;2023-05-07T10:07:27;2.30;;;1.70;;
70320;SDS011;61127;55.826;37.046;2023-05-07T10:09:58;2.03;;;1.60;;
70320;SDS011;61127;55.826;37.046;2023-05-07T10:12:35;1.95;;;1.50;;
70320;SDS011;61127;55.826;37.046;2023-05-07T10:15:09;1.73;;;1.50;;
70320;SDS011;61127;55.826;37.046;2023-05-07T10:17:37;3.33;;;1.30;;
70320;SDS011;61127;55.826;37.046;2023-05-07T10:20:08;2.45;;;1.40;;
70320;SDS011;61127;55.826;37.046;2023-05-07T10:22:41;1.92;;;1.50;;
70320;SDS011;61127;55.826;37.046;2023-05-07T10:25:14;2.05;;;1.50;;
70320;SDS011;61127;55.826;37.046;2023-05-07T10:27:45;2.53;;;1.50;;
70320;SDS011;61127;55.826;37.046;2023-05-07T10:30:21;1.38;;;1.27;;
70320;SDS011;61127;55.826;37.046;2023-05-07T10:33:15;3.70;;;1.27;;
70320;SDS011;61127;55.826;37.046;2023-05-07T10:35:45;2.03;;;1.30;;
70320;SDS011;61127;55.826;37.046;2023-05-07T10:38:14;2.20;;;1.30;;
70320;SDS011;61127;55.826;37.046;2023-05-07T10:40:43;1.30;;;0.90;;
70320;SDS011;61127;55.826;37.046;2023-05-07T10:43:09;1.52;;;1.10;;
70320;SDS011;61127;55.826;37.046;2023-05-07T10:49:19;1.75;;;1.10;;
70320;SDS011;61127;55.826;37.046;2023-05-07T10:51:30;2.92;;;1.60;;
70320;SDS011;61127;55.826;37.046;2023-05-07T10:56:43;2.22;;;1.08;;
70320;SDS011;61127;55.826;37.046;2023-05-07T11:01:53;1.95;;;1.15;;
70320;SDS011;61127;55.826;37.046;2023-05-07T11:04:43;1.88;;;0.85;;
70320;SDS011;61127;55.826;37.046;2023-05-07T11:07:32;5.00;;;1.20;;
70320;SDS011;61127;55.826;37.046;2023-05-07T11:10:12;1.90;;;1.20;;
70320;SDS011;61127;55.826;37.046;2023-05-07T11:12:54;4.05;;;1.30;;
70320;SDS011;61127;55.826;37.046;2023-05-07T11:15:35;1.77;;;1.15;;
70320;SDS011;61127;55.826;37.046;2023-05-07T11:18:09;1.70;;;1.00;;
70320;SDS011;61127;55.826;37.046;2023-05-07T11:20:51;36.63;;;14.93;;
70320;SDS011;61127;55.826;37.046;2023-05-07T11:26:09;14.05;;;7.80;;
70320;SDS011;61127;55.826;37.046;2023-05-07T11:28:40;3.83;;;2.53;;
70320;SDS011;61127;55.826;37.046;2023-05-07T11:31:08;3.90;;;2.92;;
70320;SDS011;61127;55.826;37.046;2023-05-07T11:33:36;3.60;;;2.80;;
70320;SDS011;61127;55.826;37.046;2023-05-07T11:36:07;1.85;;;1.60;;
70320;SDS011;61127;55.826;37.046;2023-05-07T11:38:39;2.10;;;1.90;;
70320;SDS011;61127;55.826;37.046;2023-05-07T11:41:05;2.92;;;2.15;;
70320;SDS011;61127;55.826;37.046;2023-05-07T11:43:32;4.65;;;2.28;;
70320;SDS011;61127;55.826;37.046;2023-05-07T11:46:10;2.63;;;2.20;;
70320;SDS011;61127;55.826;37.046;2023-05-07T11:48:38;1.77;;;1.67;;
70320;SDS011;61127;55.826;37.046;2023-05-07T11:51:05;1.85;;;1.50;;
70320;SDS011;61127;55.826;37.046;2023-05-07T11:53:35;2.08;;;1.50;;
70320;SDS011;61127;55.826;37.046;2023-05-07T11:56:06;2.22;;;2.03;;
70320;SDS011;61127;55.826;37.046;2023-05-07T11:58:33;4.97;;;1.60;;
70320;SDS011;61127;55.826;37.046;2023-05-07T12:00:59;3.20;;;1.70;;
70320;SDS011;61127;55.826;37.046;2023-05-07T12:03:25;3.75;;;1.30;;
70320;SDS011;61127;55.826;37.046;2023-05-07T12:05:51;2.13;;;1.20;;
70320;SDS011;61127;55.826;37.046;2023-05-07T12:08:17;2.20;;;1.63;;
70320;SDS011;61127;55.826;37.046;2023-05-07T12:10:45;2.65;;;2.15;;
70320;SDS011;61127;55.826;37.046;2023-05-07T12:13:17;3.83;;;2.60;;
70320;SDS011;61127;55.826;37.046;2023-05-07T12:15:43;2.70;;;2.10;;
70320;SDS011;61127;55.826;37.046;2023-05-07T12:18:10;5.25;;;3.30;;
70320;SDS011;61127;55.826;37.046;2023-05-07T12:20:37;2.63;;;2.20;;
70320;SDS011;61127;55.826;37.046;2023-05-07T12:23:05;2.08;;;1.88;;
70320;SDS011;61127;55.826;37.046;2023-05-07T12:25:31;3.30;;;1.80;;
70320;SDS011;61127;55.826;37.046;2023-05-07T12:28:00;6.23;;;3.47;;
70320;SDS011;61127;55.826;37.046;2023-05-07T12:30:27;4.88;;;2.70;;
70320;SDS011;61127;55.826;37.046;2023-05-07T12:32:53;7.43;;;2.00;;
70320;SDS011;61127;55.826;37.046;2023-05-07T12:35:26;4.15;;;2.20;;
70320;SDS011;61127;55.826;37.046;2023-05-07T12:37:54;3.55;;;1.40;;
70320;SDS011;61127;55.826;37.046;2023-05-07T12:40:21;1.10;;;1.00;;
70320;SDS011;61127;55.826;37.046;2023-05-07T12:42:47;1.30;;;1.00;;
70320;SDS011;61127;55.826;37.046;2023-05-07T12:45:19;3.00;;;1.58;;
70320;SDS011;61127;55.826;37.046;2023-05-07T12:47:46;2.10;;;1.20;;
70320;SDS011;61127;55.826;37.046;2023-05-07T12:50:13;3.53;;;1.40;;
70320;SDS011;61127;55.826;37.046;2023-05-07T12:52:40;3.00;;;1.33;;
70320;SDS011;61127;55.826;37.046;2023-05-07T12:55:07;2.53;;;1.40;;
70320;SDS011;61127;55.826;37.046;2023-05-07T12:57:38;1.77;;;1.38;;
70320;SDS011;61127;55.826;37.046;2023-05-07T13:00:08;2.58;;;1.40;;
70320;SDS011;61127;55.826;37.046;2023-05-07T13:02:37;1.88;;;1.10;;
70320;SDS011;61127;55.826;37.046;2023-05-07T13:05:04;2.17;;;1.10;;
70320;SDS011;61127;55.826;37.046;2023-05-07T13:07:33;4.35;;;1.23;;
70320;SDS011;61127;55.826;37.046;2023-05-07T13:10:03;1.88;;;0.90;;
70320;SDS011;61127;55.826;37.046;2023-05-07T13:12:30;2.53;;;1.20;;
70320;SDS011;61127;55.826;37.046;2023-05-07T13:14:56;1.77;;;1.10;;
70320;SDS011;61127;55.826;37.046;2023-05-07T13:17:22;1.75;;;1.00;;
70320;SDS011;61127;55.826;37.046;2023-05-07T13:19:48;1.23;;;0.90;;
70320;SDS011;61127;55.826;37.046;2023-05-07T13:22:14;1.38;;;1.02;;
70320;SDS011;61127;55.826;37.046;2023-05-07T13:24:40;1.10;;;1.00;;
70320;SDS011;61127;55.826;37.046;2023-05-07T13:27:08;1.90;;;1.10;;
70320;SDS011;61127;55.826;37.046;2023-05-07T13:29:33;1.58;;;1.00;;
70320;SDS011;61127;55.826;37.046;2023-05-07T13:32:00;3.28;;;1.40;;
70320;SDS011;61127;55.826;37.046;2023-05-07T13:34:25;1.97;;;1.00;;
70320;SDS011;61127;55.826;37.046;2023-05-07T13:36:52;2.28;;;1.20;;
70320;SDS011;61127;55.826;37.046;2023-05-07T13:39:17;3.17;;;1.00;;
70320;SDS011;61127;55.826;37.046;2023-05-07T13:41:44;2.43;;;1.00;;
70320;SDS011;61127;55.826;37.046;2023-05-07T13:44:10;2.08;;;1.05;;
70320;SDS011;61127;55.826;37.046;2023-05-07T13:46:39;2.13;;;1.10;;
70320;SDS011;61127;55.826;37.046;2023-05-07T13:49:05;3.08;;;1.20;;
70320;SDS011;61127;55.826;37.046;2023-05-07T13:51:31;3.47;;;1.52;;
70320;SDS011;61127;55.826;37.046;2023-05-07T13:53:57;2.90;;;1.00;;
70320;SDS011;61127;55.826;37.046;2023-05-07T13:56:23;2.80;;;1.10;;
70320;SDS011;61127;55.826;37.046;2023-05-07T13:58:50;2.67;;;1.33;;
70320;SDS011;61127;55.826;37.046;2023-05-07T14:01:15;2.50;;;1.20;;
70320;SDS011;61127;55.826;37.046;2023-05-07T14:03:41;3.33;;;1.23;;
70320;SDS011;61127;55.826;37.046;2023-05-07T14:06:07;3.80;;;1.60;;
70320;SDS011;61127;55.826;37.046;2023-05-07T14:08:33;2.70;;;1.40;;
70320;SDS011;61127;55.826;37.046;2023-05-07T14:11:00;2.53;;;1.17;;
70320;SDS011;61127;55.826;37.046;2023-05-07T14:13:26;3.55;;;1.40;;
70320;SDS011;61127;55.826;37.046;2023-05-07T14:15:54;2.03;;;1.20;;
70320;SDS011;61127;55.826;37.046;2023-05-07T14:18:20;4.90;;;1.10;;
70320;SDS011;61127;55.826;37.046;2023-05-07T14:20:46;2.10;;;1.20;;
70320;SDS011;61127;55.826;37.046;2023-05-07T14:23:15;2.22;;;1.13;;
70320;SDS011;61127;55.826;37.046;2023-05-07T14:25:43;2.42;;;1.20;;
70320;SDS011;61127;55.826;37.046;2023-05-07T14:28:09;2.47;;;0.90;;
70320;SDS011;61127;55.826;37.046;2023-05-07T14:30:35;2.17;;;1.03;;
70320;SDS011;61127;55.826;37.046;2023-05-07T14:33:01;1.60;;;1.13;;
70320;SDS011;61127;55.826;37.046;2023-05-07T14:35:27;3.15;;;1.30;;
70320;SDS011;61127;55.826;37.046;2023-05-07T14:37:53;2.87;;;1.50;;
70320;SDS011;61127;55.826;37.046;2023-05-07T14:40:19;1.98;;;1.23;;
70320;SDS011;61127;55.826;37.046;2023-05-07T14:42:45;2.63;;;1.30;;
70320;SDS011;61127;55.826;37.046;2023-05-07T14:45:11;5.00;;;1.30;;
70320;SDS011;61127;55.826;37.046;2023-05-07T14:47:37;3.70;;;1.23;;
70320;SDS011;61127;55.826;37.046;2023-05-07T14:50:03;2.45;;;1.15;;